createdAt,value
2019-05-09T00:01:57.987Z,99656.99
2019-05-09T00:06:59.494Z,99655.97
2019-05-09T00:12:01.079Z,99650.57
2019-05-09T00:17:03.688Z,99650.48
2019-05-09T00:22:05.422Z,99648.16
2019-05-09T00:27:06.869Z,99652.00
2019-05-09T00:32:08.360Z,99650.95
2019-05-09T00:37:09.837Z,99666.13
2019-05-09T00:42:13.528Z,99656.84
2019-05-09T00:47:14.815Z,99653.69
2019-05-09T00:52:16.293Z,99657.53
2019-05-09T00:57:17.821Z,99657.44
2019-05-09T01:02:19.329Z,99660.33
2019-05-09T01:07:20.745Z,99667.22
2019-05-09T01:12:23.531Z,99660.16
2019-05-09T01:17:25.178Z,99652.17
2019-05-09T01:22:26.669Z,99663.38
2019-05-09T01:27:28.212Z,99657.64
2019-05-09T01:32:29.733Z,99655.78
2019-05-09T01:37:31.262Z,99657.41
2019-05-09T01:42:33.778Z,99661.26
2019-05-09T01:47:35.433Z,99659.87
2019-05-09T01:52:36.991Z,99655.80
2019-05-09T01:57:38.461Z,99658.31
2019-05-09T02:02:39.974Z,99663.89
2019-05-09T02:07:43.281Z,99666.42
2019-05-09T02:12:44.869Z,99659.77
2019-05-09T02:17:57.775Z,99659.69
2019-05-09T02:22:49.615Z,99653.04
2019-05-09T02:27:51.134Z,99647.66
2019-05-09T02:32:54.687Z,99644.13
2019-05-09T02:37:58.720Z,99650.14
2019-05-09T02:42:59.503Z,99645.72
2019-05-09T02:48:01.133Z,99642.56
2019-05-09T02:53:02.528Z,99645.58
2019-05-09T02:58:04.054Z,99645.99
2019-05-09T03:03:08.814Z,99652.40
2019-05-09T03:08:09.709Z,99650.30
2019-05-09T03:13:11.507Z,99643.77
2019-05-09T03:18:13.020Z,99642.92
2019-05-09T03:23:14.461Z,99641.53
2019-05-09T03:28:18.446Z,99634.44
2019-05-09T03:33:20.337Z,99626.87
2019-05-09T03:38:22.017Z,99630.14
2019-05-09T03:43:23.567Z,99628.19
2019-05-09T03:48:25.069Z,99626.74
2019-05-09T03:53:27.606Z,99633.61
2019-05-09T03:58:29.055Z,99635.25
2019-05-09T04:03:30.466Z,99637.39
2019-05-09T04:08:31.965Z,99633.41
2019-05-09T04:13:33.453Z,99636.35
2019-05-09T04:18:34.961Z,99634.16
2019-05-09T04:23:37.831Z,99633.41
2019-05-09T04:28:40.027Z,99638.78
2019-05-09T04:33:41.583Z,99638.81
2019-05-09T04:38:43.145Z,99643.77
2019-05-09T04:43:44.694Z,99637.94
2019-05-09T04:48:47.583Z,99645.81
2019-05-09T04:53:49.443Z,99642.20
2019-05-09T04:58:50.911Z,99641.20
2019-05-09T05:03:52.501Z,99641.93
2019-05-09T05:08:54.085Z,99649.22
2019-05-09T05:13:55.659Z,99645.21
2019-05-09T05:18:58.545Z,99644.77
2019-05-09T05:24:00.043Z,99643.49
2019-05-09T05:29:01.594Z,99652.31
2019-05-09T05:34:03.108Z,99657.21
2019-05-09T05:39:07.535Z,99657.34
2019-05-09T05:44:09.156Z,99659.31
2019-05-09T05:49:10.691Z,99657.85
2019-05-09T05:54:12.228Z,99656.89
2019-05-09T05:59:14.059Z,99661.56
2019-05-09T06:04:18.306Z,99665.30
2019-05-09T06:09:19.853Z,99661.20
2019-05-09T06:14:21.389Z,99673.22
2019-05-09T06:19:23.089Z,99674.63
2019-05-09T06:24:24.653Z,99679.03
2019-05-09T06:29:28.670Z,99684.74
2019-05-09T06:34:29.560Z,99688.37
2019-05-09T06:39:31.100Z,99685.95
2019-05-09T06:44:32.631Z,99697.08
2019-05-09T06:49:34.237Z,99691.52
2019-05-09T06:54:35.813Z,99698.27
2019-05-09T06:59:38.306Z,99705.03
2019-05-09T07:04:39.671Z,99698.27
2019-05-09T07:09:41.133Z,99694.59
2019-05-09T07:14:42.620Z,99696.95
2019-05-09T07:19:44.318Z,99693.63
2019-05-09T07:24:48.008Z,99694.28
2019-05-09T07:29:49.430Z,99696.34
2019-05-09T07:34:51.278Z,99698.56
2019-05-09T07:39:52.901Z,99696.57
2019-05-09T07:44:54.579Z,99690.09
2019-05-09T07:49:58.387Z,99698.45
2019-05-09T07:54:59.861Z,99695.11
2019-05-09T08:00:01.361Z,99693.28
2019-05-09T08:05:02.928Z,99701.01
2019-05-09T08:10:04.484Z,99694.64
2019-05-09T08:15:13.339Z,99700.00
2019-05-09T08:20:09.334Z,99698.33
2019-05-09T08:25:10.896Z,99706.33
2019-05-09T08:30:12.440Z,99702.83
2019-05-09T08:35:13.871Z,99709.43
2019-05-09T08:40:15.400Z,99715.97
2019-05-09T08:45:25.271Z,99715.81
2019-05-09T08:50:20.541Z,99723.69
2019-05-09T08:55:22.063Z,99726.25
2019-05-09T09:00:23.567Z,99720.83
2019-05-09T09:05:25.097Z,99725.70
2019-05-09T09:10:29.140Z,99733.77
2019-05-09T09:15:55.724Z,99733.23
2019-05-09T09:20:33.370Z,99734.70
2019-05-09T09:25:34.867Z,99745.62
2019-05-09T09:30:38.598Z,99738.52
2019-05-09T09:35:39.941Z,99745.47
2019-05-09T09:40:41.443Z,99748.37
2019-05-09T09:45:42.879Z,99750.95
2019-05-09T09:50:44.541Z,99737.31
2019-05-09T09:55:47.617Z,99740.79
2019-05-09T10:00:49.332Z,99744.93
2019-05-09T10:05:50.926Z,99746.45
2019-05-09T10:10:52.469Z,99746.48
2019-05-09T10:15:54.023Z,99753.44
2019-05-09T10:20:55.633Z,99753.73
2019-05-09T10:25:58.193Z,99763.47
2019-05-09T10:30:59.851Z,99767.11
2019-05-09T10:36:04.470Z,99778.03
2019-05-09T10:41:04.965Z,99773.74
2019-05-09T10:46:08.355Z,99780.78
2019-05-09T10:51:10.651Z,99790.40
2019-05-09T10:56:12.439Z,99788.57
2019-05-09T11:01:13.857Z,99797.77
2019-05-09T11:06:18.019Z,99807.60
2019-05-09T11:11:18.915Z,99804.01
2019-05-09T11:16:20.389Z,99807.99
2019-05-09T11:21:21.818Z,99811.52
2019-05-09T11:26:24.299Z,99816.59
2019-05-09T11:31:25.713Z,99827.77
2019-05-09T11:36:27.357Z,99816.20
2019-05-09T11:41:29.672Z,99827.30
2019-05-09T11:46:31.952Z,99829.66
2019-05-09T11:51:33.590Z,99827.52
2019-05-09T11:56:35.305Z,99840.54
2019-05-09T12:01:39.454Z,99833.43
2019-05-09T12:06:40.274Z,99848.48
2019-05-09T12:11:44.601Z,99845.95
2019-05-09T12:16:47.820Z,99839.39
2019-05-09T12:21:48.761Z,99835.70
2019-05-09T12:26:50.419Z,99842.69
2019-05-09T12:31:51.965Z,99849.03
2019-05-09T12:36:53.837Z,99851.47
2019-05-09T12:41:57.682Z,99857.75
2019-05-09T12:46:58.802Z,99851.05
2019-05-09T12:52:00.412Z,99862.31
2019-05-09T12:57:01.912Z,99873.40
2019-05-09T13:02:03.485Z,99874.00
2019-05-09T13:07:04.965Z,99879.09
2019-05-09T13:12:08.634Z,99882.88
2019-05-09T13:17:09.754Z,99875.48
2019-05-09T13:22:11.442Z,99894.91
2019-05-09T13:27:12.987Z,99894.34
2019-05-09T13:32:14.486Z,99907.95
2019-05-09T13:37:18.616Z,99910.47
2019-05-09T13:42:19.952Z,99916.63
2019-05-09T13:47:21.682Z,99912.45
2019-05-09T13:52:23.191Z,99915.83
2019-05-09T13:57:24.759Z,99911.88
2019-05-09T14:02:28.527Z,99923.53
2019-05-09T14:07:29.678Z,99930.39
2019-05-09T14:12:31.158Z,99928.48
2019-05-09T14:17:45.977Z,99924.70
2019-05-09T14:22:38.428Z,99918.25
2019-05-09T14:27:39.524Z,99926.42
2019-05-09T14:32:41.168Z,99937.16
2019-05-09T14:37:42.763Z,99930.30
2019-05-09T14:42:44.412Z,99922.02
2019-05-09T14:47:45.949Z,99929.97
2019-05-09T14:52:49.357Z,99935.36
2019-05-09T14:57:50.962Z,99937.12
2019-05-09T15:02:52.599Z,99940.01
2019-05-09T15:07:54.254Z,99949.88
2019-05-09T15:12:58.362Z,99941.97
2019-05-09T15:17:59.254Z,99945.28
2019-05-09T15:23:00.819Z,99950.02
2019-05-09T15:28:02.319Z,99952.37
2019-05-09T15:33:03.781Z,99956.31
2019-05-09T15:38:05.209Z,99967.01
2019-05-09T15:43:08.275Z,99974.88
2019-05-09T15:48:09.917Z,99983.92
2019-05-09T15:53:11.309Z,99985.86
2019-05-09T15:58:13.073Z,99983.33
2019-05-09T16:03:14.578Z,99986.86
2019-05-09T16:08:18.574Z,99986.49
2019-05-09T16:13:19.997Z,99993.67
2019-05-09T16:18:21.460Z,99990.78
2019-05-09T16:23:23.357Z,99993.26
2019-05-09T16:28:25.133Z,99991.73
2019-05-09T16:33:27.905Z,100005.46
2019-05-09T16:38:42.176Z,100006.30
2019-05-09T16:43:33.195Z,100005.56
2019-05-09T16:48:34.957Z,100014.56
2019-05-09T16:53:36.892Z,100030.09
2019-05-09T16:58:38.495Z,100042.17
2019-05-09T17:03:40.168Z,100041.62
2019-05-09T17:08:41.816Z,100042.24
2019-05-09T17:13:43.374Z,100048.62
2019-05-09T17:18:44.979Z,100057.14
2019-05-09T17:23:47.627Z,100068.68
2019-05-09T17:28:49.339Z,100076.59
2019-05-09T17:33:50.924Z,100083.32
2019-05-09T17:38:52.455Z,100089.17
2019-05-09T17:43:58.231Z,100091.90
2019-05-09T17:49:00.181Z,100107.86
2019-05-09T17:54:01.718Z,100132.95
2019-05-09T17:59:03.257Z,100133.57
2019-05-09T18:04:04.788Z,100154.77
2019-05-09T18:09:08.438Z,100167.58
2019-05-09T18:14:09.689Z,100175.75
2019-05-09T18:19:11.408Z,100170.72
2019-05-09T18:24:12.836Z,100177.09
2019-05-09T18:29:14.368Z,100168.42
2019-05-09T18:34:18.568Z,100176.38
2019-05-09T18:39:19.948Z,100172.52
2019-05-09T18:44:21.527Z,100179.16
2019-05-09T18:49:23.086Z,100179.95
2019-05-09T18:54:24.617Z,100175.91
2019-05-09T18:59:26.147Z,100184.69
2019-05-09T19:04:27.654Z,100189.53
2019-05-09T19:09:29.201Z,100193.02
2019-05-09T19:14:30.740Z,100201.77
2019-05-09T19:19:32.213Z,100199.05
2019-05-09T19:24:33.846Z,100195.84
2019-05-09T19:29:35.575Z,100202.84
2019-05-09T19:34:37.363Z,100210.25
2019-05-09T19:39:39.553Z,100213.75
2019-05-09T19:44:41.089Z,100220.47
2019-05-09T19:49:42.632Z,100229.23
2019-05-09T19:54:45.670Z,100233.23
2019-05-09T19:59:47.416Z,100235.41
2019-05-09T20:04:49.055Z,100246.84
2019-05-09T20:09:50.636Z,100247.22
2019-05-09T20:14:52.369Z,100254.13
2019-05-09T20:19:54.090Z,100259.28
2019-05-09T20:24:55.741Z,100254.31
2019-05-09T20:29:57.654Z,100260.48
2019-05-09T20:34:59.140Z,100266.55
2019-05-09T20:40:00.675Z,100263.97
2019-05-09T20:45:02.241Z,100271.47
2019-05-09T20:50:03.689Z,100287.33
2019-05-09T20:55:05.236Z,100298.23
2019-05-09T21:00:06.717Z,100300.75
2019-05-09T21:05:08.236Z,100300.70
2019-05-09T21:10:09.849Z,100301.95
2019-05-09T21:15:11.365Z,100300.99
2019-05-09T21:20:12.929Z,100294.76
2019-05-09T21:25:14.421Z,100293.38
2019-05-09T21:30:15.947Z,100298.65
2019-05-09T21:35:17.460Z,100299.92
2019-05-09T21:40:19.152Z,100309.08
2019-05-09T21:45:20.681Z,100313.49
2019-05-09T21:50:22.212Z,100308.16
2019-05-09T21:55:23.715Z,100309.05
2019-05-09T22:00:27.631Z,100308.87
2019-05-09T22:05:29.140Z,100314.85
2019-05-09T22:10:30.634Z,100321.84
2019-05-09T22:15:32.150Z,100322.66
2019-05-09T22:20:33.679Z,100321.72
2019-05-09T22:25:35.229Z,100325.67
2019-05-09T22:30:36.599Z,100327.38
2019-05-09T22:35:38.107Z,100330.30
2019-05-09T22:40:39.644Z,100328.51
2019-05-09T22:45:41.098Z,100332.51
2019-05-09T22:50:42.654Z,100328.51
2019-05-09T22:55:44.073Z,100330.00
2019-05-09T23:00:45.509Z,100325.13
2019-05-09T23:05:46.998Z,100328.25
2019-05-09T23:10:48.522Z,100330.05
2019-05-09T23:15:50.012Z,100322.09
2019-05-09T23:20:51.562Z,100323.66
2019-05-09T23:25:53.090Z,100322.77
2019-05-09T23:30:54.592Z,100327.12
2019-05-09T23:35:55.996Z,100334.54
2019-05-09T23:40:57.417Z,100337.92
2019-05-09T23:45:58.992Z,100333.91
2019-05-09T23:51:00.429Z,100342.15
2019-05-09T23:56:01.879Z,100346.73
